Time;durP1;ratioP1;P1;durP2;ratioP2;P2;SDS_P1;SDS_P2;PMS_P1;PMS_P2;Temp;Humidity;BMP_temperature;BMP_pressure;BME280_temperature;BME280_humidity;BME280_pressure;Samples;Min_cycle;Max_cycle;Signal;HPM_P1;HPM_P2
2023/06/11 00:01:14;;;;;;;;;;;21.90;91.10;;;;;;5073526;28;19915;-47
2023/06/11 00:03:40;;;;;;;;;;;21.80;90.80;;;;;;5073773;28;20291;-51
2023/06/11 00:06:10;;;;;;;;;;;21.80;90.90;;;;;;5073348;28;20330;-48
2023/06/11 00:08:36;;;;;;;;;;;21.80;91.30;;;;;;5073695;28;19908;-49
2023/06/11 00:11:02;;;;;;;;;;;21.80;91.10;;;;;;5073334;28;20175;-47
2023/06/11 00:13:27;;;;;;;;;;;21.70;91.20;;;;;;5073412;28;20343;-50
2023/06/11 00:15:53;;;;;;;;;;;21.70;91.30;;;;;;5073497;28;19908;-49
2023/06/11 00:18:19;;;;;;;;;;;21.70;91.20;;;;;;5073407;28;20015;-51
2023/06/11 00:20:46;;;;;;;;;;;21.60;92.00;;;;;;5073165;28;19915;-47
2023/06/11 00:23:12;;;;;;;;;;;21.50;91.70;;;;;;5073322;28;19908;-49
2023/06/11 00:25:37;;;;;;;;;;;21.50;91.90;;;;;;5073345;28;19908;-48
2023/06/11 00:28:03;;;;;;;;;;;21.50;92.00;;;;;;5073150;28;19912;-48
2023/06/11 00:30:29;;;;;;;;;;;21.40;92.50;;;;;;5073118;28;19919;-50
2023/06/11 00:32:54;;;;;;;;;;;21.40;92.00;;;;;;5073307;28;19908;-50
2023/06/11 00:35:20;;;;;;;;;;;21.40;92.10;;;;;;5073585;28;19916;-47
2023/06/11 00:37:47;;;;;;;;;;;21.40;92.30;;;;;;5073216;28;19919;-46
2023/06/11 00:40:13;;;;;;;;;;;21.40;92.40;;;;;;5055220;28;19908;-48
2023/06/11 00:42:40;;;;;;;;;;;21.30;92.30;;;;;;5073259;28;20463;-49
2023/06/11 00:45:07;;;;;;;;;;;21.30;92.60;;;;;;5073036;28;19908;-50
2023/06/11 00:47:33;;;;;;;;;;;21.30;92.50;;;;;;5072696;28;19908;-51
2023/06/11 00:50:00;;;;;;;;;;;21.20;92.30;;;;;;5071699;28;19909;-51
2023/06/11 00:52:26;;;;;;;;;;;21.20;92.80;;;;;;5071378;28;19908;-50
2023/06/11 00:54:52;;;;;;;;;;;21.20;93.00;;;;;;5072803;28;19920;-49
2023/06/11 00:57:22;;;;;;;;;;;21.20;92.60;;;;;;5054606;28;19916;-49
2023/06/11 00:59:50;;;;;;;;;;;21.10;93.10;;;;;;5054691;28;19965;-48
2023/06/11 01:02:36;;;;;;;;;;;21.10;93.10;;;;;;5054477;28;19908;-49
2023/06/11 01:05:03;;;;;;;;;;;21.00;93.20;;;;;;5072325;28;19908;-48
2023/06/11 01:07:34;;;;;;;;;;;21.00;94.00;;;;;;5072265;28;19955;-47
2023/06/11 01:10:02;;;;;;;;;;;21.00;93.90;;;;;;5072336;28;19915;-49
2023/06/11 01:12:30;;;;;;;;;;;21.00;93.80;;;;;;5054194;28;19915;-49
2023/06/11 01:14:55;;;;;;;;;;;20.90;94.00;;;;;;5072330;28;19908;-49
2023/06/11 01:17:40;;;;;;;;;;;20.90;93.30;;;;;;5072027;28;20380;-49
2023/06/11 01:20:12;;;;;;;;;;;20.90;93.50;;;;;;5070723;28;19908;-48
2023/06/11 01:22:49;;;;;;;;;;;20.90;93.30;;;;;;5072017;28;20002;-46
2023/06/11 01:25:15;;;;;;;;;;;20.90;93.50;;;;;;5054061;28;19908;-47
2023/06/11 01:27:53;;;;;;;;;;;20.90;93.50;;;;;;5053838;28;19920;-47
2023/06/11 01:30:20;;;;;;;;;;;20.90;93.90;;;;;;5053823;28;19909;-48
2023/06/11 01:32:53;;;;;;;;;;;20.90;93.80;;;;;;5037368;28;19908;-47
2023/06/11 01:35:22;;;;;;;;;;;20.80;93.20;;;;;;5053985;28;19908;-48
2023/06/11 01:37:55;;;;;;;;;;;20.80;94.20;;;;;;5071648;28;20378;-48
2023/06/11 01:40:26;;;;;;;;;;;20.70;93.50;;;;;;5053638;28;19958;-46
2023/06/11 01:42:54;;;;;;;;;;;20.70;94.00;;;;;;5053807;28;19909;-47
2023/06/11 01:45:21;;;;;;;;;;;20.60;94.20;;;;;;5070403;28;19912;-47
2023/06/11 01:47:48;;;;;;;;;;;20.60;94.00;;;;;;5053558;28;20421;-47
2023/06/11 01:50:14;;;;;;;;;;;20.60;94.20;;;;;;5071531;28;20049;-47
2023/06/11 01:52:40;;;;;;;;;;;20.50;94.10;;;;;;5071508;28;19915;-48
2023/06/11 01:55:06;;;;;;;;;;;20.50;94.40;;;;;;5053653;28;19909;-47
2023/06/11 01:57:34;;;;;;;;;;;20.50;94.50;;;;;;5053286;28;19962;-48
2023/06/11 02:00:00;;;;;;;;;;;20.50;94.70;;;;;;5053233;28;19908;-51
2023/06/11 02:02:27;;;;;;;;;;;20.50;94.50;;;;;;5053325;28;19991;-48
2023/06/11 02:04:54;;;;;;;;;;;20.50;94.70;;;;;;5053395;28;19909;-47
2023/06/11 02:07:19;;;;;;;;;;;20.40;94.80;;;;;;5071256;28;19918;-48
2023/06/11 02:09:45;;;;;;;;;;;20.40;94.80;;;;;;5071492;28;19913;-48
2023/06/11 02:12:11;;;;;;;;;;;20.40;94.60;;;;;;5071209;28;20369;-48
2023/06/11 02:14:37;;;;;;;;;;;20.40;94.80;;;;;;5053297;28;20381;-49
2023/06/11 02:17:02;;;;;;;;;;;20.40;94.60;;;;;;5069738;28;19959;-48
2023/06/11 02:19:34;;;;;;;;;;;20.40;94.70;;;;;;5069965;28;20280;-48
2023/06/11 02:21:59;;;;;;;;;;;20.30;95.20;;;;;;5070951;28;19909;-47
2023/06/11 02:24:26;;;;;;;;;;;20.20;95.20;;;;;;5071185;28;19908;-51
2023/06/11 02:26:52;;;;;;;;;;;20.10;95.30;;;;;;5069634;28;19923;-49
2023/06/11 02:29:17;;;;;;;;;;;20.00;95.60;;;;;;5071305;28;19909;-52
2023/06/11 02:31:43;;;;;;;;;;;20.00;95.90;;;;;;5053032;28;19908;-48
2023/06/11 02:34:10;;;;;;;;;;;19.90;95.70;;;;;;5053050;28;19913;-47
2023/06/11 02:36:36;;;;;;;;;;;19.90;95.80;;;;;;5069543;28;19917;-48
2023/06/11 02:39:02;;;;;;;;;;;19.90;95.90;;;;;;5071118;28;19912;-50
2023/06/11 02:41:28;;;;;;;;;;;19.90;96.10;;;;;;5071098;28;19965;-47
2023/06/11 02:43:54;;;;;;;;;;;19.80;96.20;;;;;;5071370;28;20003;-48
2023/06/11 02:46:19;;;;;;;;;;;19.80;96.20;;;;;;5052778;28;19908;-49
2023/06/11 02:48:45;;;;;;;;;;;19.80;96.10;;;;;;5070972;28;19909;-48
2023/06/11 02:51:10;;;;;;;;;;;19.80;96.20;;;;;;5070895;28;20253;-48
2023/06/11 02:53:36;;;;;;;;;;;19.80;96.20;;;;;;5070995;28;19966;-50
2023/06/11 02:56:02;;;;;;;;;;;19.80;96.30;;;;;;5052855;28;19928;-49
2023/06/11 02:58:27;;;;;;;;;;;19.80;96.60;;;;;;5069623;28;19958;-48
2023/06/11 03:00:53;;;;;;;;;;;19.80;96.80;;;;;;5052718;28;20356;-48
2023/06/11 03:03:19;;;;;;;;;;;19.80;96.90;;;;;;5052778;28;20334;-49
2023/06/11 03:05:47;;;;;;;;;;;19.80;96.40;;;;;;5069457;28;19908;-49
2023/06/11 03:08:12;;;;;;;;;;;19.70;96.60;;;;;;5053024;28;19909;-51
2023/06/11 03:10:38;;;;;;;;;;;19.80;96.80;;;;;;5070722;28;19927;-50
2023/06/11 03:13:04;;;;;;;;;;;19.70;96.90;;;;;;5071390;28;20166;-51
2023/06/11 03:15:30;;;;;;;;;;;19.70;96.70;;;;;;5073463;28;19958;-53
2023/06/11 03:17:57;;;;;;;;;;;19.60;96.90;;;;;;5056335;28;19958;-53
2023/06/11 03:20:23;;;;;;;;;;;19.60;96.80;;;;;;5073099;28;19908;-52
2023/06/11 03:22:49;;;;;;;;;;;19.60;97.00;;;;;;5072941;28;19912;-52
2023/06/11 03:25:16;;;;;;;;;;;19.60;97.50;;;;;;5056775;28;19974;-53
2023/06/11 03:27:42;;;;;;;;;;;19.50;97.70;;;;;;5056199;28;20441;-52
2023/06/11 03:30:08;;;;;;;;;;;19.50;97.70;;;;;;5056392;28;20288;-51
2023/06/11 03:32:36;;;;;;;;;;;19.40;97.70;;;;;;5056157;28;20046;-50
2023/06/11 03:35:02;;;;;;;;;;;19.40;98.30;;;;;;5074839;28;19995;-50
2023/06/11 03:37:30;;;;;;;;;;;19.40;98.20;;;;;;5072675;28;19920;-53
2023/06/11 03:39:58;;;;;;;;;;;19.30;98.40;;;;;;5056343;28;19915;-53
2023/06/11 03:42:25;;;;;;;;;;;19.30;98.40;;;;;;5056188;28;19934;-51
2023/06/11 03:44:53;;;;;;;;;;;19.30;98.60;;;;;;5056463;28;19947;-50
2023/06/11 03:47:19;;;;;;;;;;;19.20;98.50;;;;;;5056237;28;19913;-50
2023/06/11 03:49:45;;;;;;;;;;;19.20;98.70;;;;;;5056327;28;20289;-49
2023/06/11 03:52:10;;;;;;;;;;;19.20;98.90;;;;;;5074103;28;20332;-53
2023/06/11 03:54:36;;;;;;;;;;;19.20;98.70;;;;;;5073127;28;19908;-52
2023/06/11 03:57:02;;;;;;;;;;;19.20;99.10;;;;;;5055922;28;19916;-49
2023/06/11 03:59:28;;;;;;;;;;;19.10;99.40;;;;;;5072780;28;19920;-48
2023/06/11 04:01:54;;;;;;;;;;;19.10;99.40;;;;;;5072262;28;19908;-48
2023/06/11 04:04:20;;;;;;;;;;;19.10;99.60;;;;;;5072546;28;19944;-49
2023/06/11 04:06:47;;;;;;;;;;;19.10;99.90;;;;;;5055579;28;19931;-49
2023/06/11 04:09:14;;;;;;;;;;;19.10;99.60;;;;;;5072372;28;20007;-50
2023/06/11 04:11:39;;;;;;;;;;;19.10;99.90;;;;;;5072058;28;20012;-49
2023/06/11 04:14:05;;;;;;;;;;;19.10;99.90;;;;;;5055589;28;19916;-49
2023/06/11 04:16:31;;;;;;;;;;;19.20;99.90;;;;;;5071999;28;19938;-48
2023/06/11 04:18:57;;;;;;;;;;;19.20;99.90;;;;;;5055322;28;19930;-48
2023/06/11 04:21:23;;;;;;;;;;;19.20;99.90;;;;;;5072016;28;20369;-49
2023/06/11 04:23:49;;;;;;;;;;;19.20;99.90;;;;;;5072168;28;19912;-50
2023/06/11 04:26:19;;;;;;;;;;;19.20;99.90;;;;;;5071824;28;20310;-52
2023/06/11 04:28:45;;;;;;;;;;;19.10;99.90;;;;;;5055320;28;19957;-51
2023/06/11 04:31:12;;;;;;;;;;;19.10;99.90;;;;;;5054821;28;19966;-48
2023/06/11 04:33:38;;;;;;;;;;;19.10;99.90;;;;;;5071779;28;19919;-49
2023/06/11 04:36:10;;;;;;;;;;;19.10;99.90;;;;;;5055022;28;19915;-49
2023/06/11 04:38:37;;;;;;;;;;;19.10;99.90;;;;;;5054971;28;19912;-49
2023/06/11 04:41:07;;;;;;;;;;;19.20;99.90;;;;;;5054826;28;19909;-48
2023/06/11 04:43:33;;;;;;;;;;;19.20;99.90;;;;;;5071591;28;19908;-49
2023/06/11 04:46:00;;;;;;;;;;;19.30;99.90;;;;;;5054647;28;19908;-51
2023/06/11 04:48:31;;;;;;;;;;;19.30;99.90;;;;;;5071472;28;19916;-50
2023/06/11 04:51:00;;;;;;;;;;;19.40;99.90;;;;;;5071268;28;20304;-49
2023/06/11 04:53:28;;;;;;;;;;;19.40;99.90;;;;;;5071406;28;19913;-51
2023/06/11 04:55:56;;;;;;;;;;;19.50;99.90;;;;;;5054507;28;19958;-49
2023/06/11 04:58:22;;;;;;;;;;;19.50;99.90;;;;;;5054622;28;20328;-50
2023/06/11 05:00:48;;;;;;;;;;;19.60;99.90;;;;;;5054366;28;19908;-49
2023/06/11 05:03:16;;;;;;;;;;;19.60;99.90;;;;;;5054942;28;19914;-49
2023/06/11 05:05:49;;;;;;;;;;;19.60;99.90;;;;;;5054743;28;19908;-51
2023/06/11 05:08:16;;;;;;;;;;;19.70;99.90;;;;;;5054465;28;19908;-49
2023/06/11 05:10:43;;;;;;;;;;;19.80;99.90;;;;;;5054097;28;19908;-48
2023/06/11 05:13:09;;;;;;;;;;;19.90;99.90;;;;;;5070834;28;19912;-49
2023/06/11 05:15:36;;;;;;;;;;;19.90;99.90;;;;;;5071487;28;20277;-52
2023/06/11 05:18:02;;;;;;;;;;;20.00;99.90;;;;;;5070670;28;19913;-52
2023/06/11 05:20:29;;;;;;;;;;;20.10;99.90;;;;;;5053916;28;19919;-50
2023/06/11 05:22:58;;;;;;;;;;;20.20;99.90;;;;;;5070721;28;19912;-49
2023/06/11 05:25:28;;;;;;;;;;;20.40;99.90;;;;;;5054066;28;19908;-48
2023/06/11 05:28:00;;;;;;;;;;;20.50;99.90;;;;;;5070382;28;19916;-51
2023/06/11 05:30:29;;;;;;;;;;;20.50;99.90;;;;;;5053825;28;20365;-50
2023/06/11 05:32:56;;;;;;;;;;;20.70;99.90;;;;;;5054006;28;19947;-50
2023/06/11 05:35:25;;;;;;;;;;;20.80;99.90;;;;;;5071466;28;19954;-51
2023/06/11 05:37:51;;;;;;;;;;;20.90;99.90;;;;;;5070198;28;19919;-51
2023/06/11 05:40:16;;;;;;;;;;;20.90;99.90;;;;;;5071529;28;19916;-51
2023/06/11 05:42:42;;;;;;;;;;;21.10;99.90;;;;;;5071442;28;20437;-49
2023/06/11 05:45:08;;;;;;;;;;;21.30;99.90;;;;;;5070478;28;20311;-48
2023/06/11 05:47:34;;;;;;;;;;;21.40;99.80;;;;;;5053560;28;19963;-50
2023/06/11 05:50:00;;;;;;;;;;;21.50;99.80;;;;;;5070185;28;19908;-50
2023/06/11 05:52:26;;;;;;;;;;;21.60;99.40;;;;;;5053255;28;19916;-49
2023/06/11 05:54:52;;;;;;;;;;;21.80;98.70;;;;;;5053573;28;19909;-48
2023/06/11 05:57:22;;;;;;;;;;;21.90;99.00;;;;;;5053310;28;20281;-51
2023/06/11 05:59:48;;;;;;;;;;;22.10;97.70;;;;;;5071745;28;19919;-49
2023/06/11 06:02:15;;;;;;;;;;;22.20;97.70;;;;;;5069931;28;19916;-52
2023/06/11 06:04:41;;;;;;;;;;;22.30;97.80;;;;;;5053497;28;19915;-46
2023/06/11 06:07:07;;;;;;;;;;;22.50;97.20;;;;;;5053184;28;19932;-47
2023/06/11 06:09:33;;;;;;;;;;;22.60;97.20;;;;;;5053619;28;20369;-46
2023/06/11 06:11:59;;;;;;;;;;;22.80;96.00;;;;;;5052977;28;20288;-47
2023/06/11 06:14:25;;;;;;;;;;;23.00;96.00;;;;;;5053411;28;19951;-46
2023/06/11 06:16:53;;;;;;;;;;;23.10;95.70;;;;;;5053220;28;19909;-48
2023/06/11 06:19:24;;;;;;;;;;;23.30;95.10;;;;;;5069997;28;19908;-49
2023/06/11 06:21:50;;;;;;;;;;;23.60;94.20;;;;;;5053202;28;19970;-50
2023/06/11 06:24:15;;;;;;;;;;;23.60;94.60;;;;;;5053306;28;19912;-51
2023/06/11 06:26:44;;;;;;;;;;;23.70;94.70;;;;;;5070745;28;19995;-52
2023/06/11 06:29:09;;;;;;;;;;;23.80;94.10;;;;;;5053133;28;19962;-49
2023/06/11 06:31:38;;;;;;;;;;;24.00;93.80;;;;;;5052959;28;19908;-52
2023/06/11 06:34:05;;;;;;;;;;;24.10;93.20;;;;;;5053175;28;19908;-49
2023/06/11 06:36:33;;;;;;;;;;;24.20;93.20;;;;;;5052893;28;19961;-50
2023/06/11 06:39:01;;;;;;;;;;;24.40;91.70;;;;;;5069670;28;19912;-48
2023/06/11 06:41:27;;;;;;;;;;;24.50;91.60;;;;;;5069363;28;19908;-47
2023/06/11 06:43:53;;;;;;;;;;;24.70;91.10;;;;;;5069818;28;20069;-46
2023/06/11 06:46:19;;;;;;;;;;;24.70;89.90;;;;;;5070963;28;20333;-48
2023/06/11 06:48:44;;;;;;;;;;;24.80;90.80;;;;;;5074128;28;19999;-48
2023/06/11 06:51:10;;;;;;;;;;;24.80;90.50;;;;;;5075061;28;19908;-49
2023/06/11 06:53:40;;;;;;;;;;;24.90;90.50;;;;;;5057306;28;19954;-51
2023/06/11 06:56:06;;;;;;;;;;;25.00;89.00;;;;;;5056877;28;19916;-48
2023/06/11 06:58:33;;;;;;;;;;;25.10;89.00;;;;;;5073923;28;19913;-47
2023/06/11 07:00:58;;;;;;;;;;;25.30;88.70;;;;;;5074714;28;20397;-50
2023/06/11 07:03:24;;;;;;;;;;;25.20;87.90;;;;;;5074799;28;19908;-49
2023/06/11 07:05:50;;;;;;;;;;;25.20;87.80;;;;;;5056789;28;20068;-49
2023/06/11 07:08:16;;;;;;;;;;;25.30;86.90;;;;;;5074829;28;19909;-50
2023/06/11 07:10:50;;;;;;;;;;;25.20;86.60;;;;;;5056447;28;19915;-48
2023/06/11 07:13:21;;;;;;;;;;;25.20;86.80;;;;;;5073596;28;20387;-49
2023/06/11 07:15:47;;;;;;;;;;;25.30;87.90;;;;;;5056382;28;19946;-47
2023/06/11 07:18:13;;;;;;;;;;;25.40;86.30;;;;;;5073063;28;19919;-47
2023/06/11 07:20:39;;;;;;;;;;;25.50;86.70;;;;;;5056225;28;19908;-47
2023/06/11 07:23:05;;;;;;;;;;;25.60;86.70;;;;;;5039834;28;19912;-47
2023/06/11 07:25:31;;;;;;;;;;;25.70;86.30;;;;;;5074416;28;19908;-49
2023/06/11 07:28:01;;;;;;;;;;;25.80;86.00;;;;;;5072786;28;19913;-47
2023/06/11 07:30:28;;;;;;;;;;;26.20;84.60;;;;;;5056186;28;19908;-49
2023/06/11 07:32:54;;;;;;;;;;;26.30;84.90;;;;;;5056178;28;19908;-48
2023/06/11 07:35:20;;;;;;;;;;;26.40;84.30;;;;;;5056329;28;19965;-51
2023/06/11 07:37:46;;;;;;;;;;;26.50;84.70;;;;;;5055958;28;19965;-52
2023/06/11 07:40:13;;;;;;;;;;;26.60;84.10;;;;;;5055971;28;19908;-48
2023/06/11 07:42:39;;;;;;;;;;;26.60;83.60;;;;;;5074006;28;19916;-48
2023/06/11 07:45:06;;;;;;;;;;;26.60;82.80;;;;;;5074072;28;19925;-48
2023/06/11 07:47:34;;;;;;;;;;;26.60;82.70;;;;;;5055888;28;20388;-52
2023/06/11 07:50:00;;;;;;;;;;;26.60;83.80;;;;;;5056040;28;19997;-48
2023/06/11 07:52:26;;;;;;;;;;;26.70;83.20;;;;;;5072369;28;19908;-52
2023/06/11 07:54:52;;;;;;;;;;;26.70;82.10;;;;;;5072254;28;20491;-48
2023/06/11 07:57:18;;;;;;;;;;;26.70;82.10;;;;;;5073918;28;20003;-49
2023/06/11 07:59:43;;;;;;;;;;;26.70;82.80;;;;;;5073246;28;19908;-48
2023/06/11 08:02:10;;;;;;;;;;;26.70;83.00;;;;;;5073424;28;20423;-49
2023/06/11 08:04:36;;;;;;;;;;;26.80;81.80;;;;;;5073924;28;19956;-51
2023/06/11 08:07:03;;;;;;;;;;;26.90;80.80;;;;;;5073650;28;19908;-49
2023/06/11 08:09:29;;;;;;;;;;;26.90;81.10;;;;;;5073665;28;19912;-49
2023/06/11 08:11:55;;;;;;;;;;;26.80;81.70;;;;;;5073345;28;19915;-51
2023/06/11 08:14:21;;;;;;;;;;;26.80;83.20;;;;;;5073420;28;19912;-48
2023/06/11 08:16:46;;;;;;;;;;;26.80;82.50;;;;;;5073437;28;19930;-49
2023/06/11 08:19:13;;;;;;;;;;;26.90;80.50;;;;;;5073455;28;19955;-52
2023/06/11 08:21:38;;;;;;;;;;;26.80;80.50;;;;;;5073021;28;19966;-49
2023/06/11 08:24:05;;;;;;;;;;;26.80;81.70;;;;;;5073156;28;19913;-51
2023/06/11 08:26:31;;;;;;;;;;;26.90;81.40;;;;;;5073280;28;19991;-49
2023/06/11 08:28:56;;;;;;;;;;;26.90;81.00;;;;;;5073296;28;20425;-50
2023/06/11 08:31:22;;;;;;;;;;;27.00;80.40;;;;;;5072942;28;19959;-47
2023/06/11 08:33:47;;;;;;;;;;;26.90;79.90;;;;;;5073219;28;19934;-47
2023/06/11 08:36:13;;;;;;;;;;;26.90;80.30;;;;;;5073074;28;20384;-51
2023/06/11 08:38:39;;;;;;;;;;;26.90;79.50;;;;;;5072884;28;19934;-49
2023/06/11 08:41:04;;;;;;;;;;;27.00;80.10;;;;;;5072867;28;19908;-48
2023/06/11 08:43:30;;;;;;;;;;;27.00;80.30;;;;;;5072896;28;19916;-49
2023/06/11 08:45:56;;;;;;;;;;;27.10;80.50;;;;;;5072666;28;19908;-48
2023/06/11 08:48:23;;;;;;;;;;;27.10;80.30;;;;;;5072832;28;19909;-52
2023/06/11 08:50:53;;;;;;;;;;;27.20;80.90;;;;;;5072528;28;19959;-49
2023/06/11 08:53:19;;;;;;;;;;;27.20;78.80;;;;;;5072600;28;19913;-48
2023/06/11 08:55:45;;;;;;;;;;;27.30;79.80;;;;;;5072532;28;19914;-50
2023/06/11 08:58:12;;;;;;;;;;;27.40;78.80;;;;;;5072491;28;19970;-47
2023/06/11 09:00:37;;;;;;;;;;;27.40;78.30;;;;;;5072397;28;19924;-49
2023/06/11 09:03:03;;;;;;;;;;;27.40;79.60;;;;;;5072627;28;20004;-48
2023/06/11 09:05:30;;;;;;;;;;;27.50;78.00;;;;;;5072523;28;20372;-49
2023/06/11 09:07:57;;;;;;;;;;;27.40;78.20;;;;;;5072277;28;20200;-52
2023/06/11 09:10:22;;;;;;;;;;;27.40;76.80;;;;;;5071430;28;20360;-50
2023/06/11 09:12:48;;;;;;;;;;;27.30;77.60;;;;;;5072278;28;19908;-48
2023/06/11 09:15:15;;;;;;;;;;;27.30;77.80;;;;;;5072347;28;20007;-48
2023/06/11 09:17:42;;;;;;;;;;;27.50;77.40;;;;;;5072285;28;19965;-48
2023/06/11 09:20:11;;;;;;;;;;;27.40;76.80;;;;;;5072150;28;19916;-50
2023/06/11 09:22:38;;;;;;;;;;;27.50;77.10;;;;;;5072147;28;19908;-48
2023/06/11 09:25:04;;;;;;;;;;;27.50;77.20;;;;;;5072230;28;19915;-48
2023/06/11 09:27:30;;;;;;;;;;;27.60;77.00;;;;;;5071938;28;20330;-48
2023/06/11 09:29:56;;;;;;;;;;;27.70;77.40;;;;;;5072265;28;20387;-49
2023/06/11 09:32:24;;;;;;;;;;;27.80;76.70;;;;;;5072256;28;19947;-49
2023/06/11 09:34:50;;;;;;;;;;;27.80;76.10;;;;;;5072212;28;20361;-49
2023/06/11 09:37:16;;;;;;;;;;;27.80;77.30;;;;;;5070506;28;19920;-52
2023/06/11 09:39:42;;;;;;;;;;;27.80;76.20;;;;;;5071978;28;19908;-49
2023/06/11 09:42:26;;;;;;;;;;;27.90;76.80;;;;;;5071640;28;19908;-47
2023/06/11 09:44:56;;;;;;;;;;;27.90;75.70;;;;;;5071917;28;20483;-49
2023/06/11 09:47:22;;;;;;;;;;;28.00;75.20;;;;;;5071559;28;19909;-50
2023/06/11 09:49:49;;;;;;;;;;;28.00;74.70;;;;;;5072324;28;19908;-50
2023/06/11 09:52:15;;;;;;;;;;;28.10;75.70;;;;;;5071213;28;19908;-49
2023/06/11 09:54:41;;;;;;;;;;;28.20;75.00;;;;;;5071638;28;19916;-52
2023/06/11 09:57:08;;;;;;;;;;;28.30;74.50;;;;;;5071330;28;19912;-50
2023/06/11 09:59:34;;;;;;;;;;;28.30;74.40;;;;;;5071585;28;19909;-50
2023/06/11 10:02:02;;;;;;;;;;;28.40;74.50;;;;;;5071275;28;20334;-53
2023/06/11 10:04:27;;;;;;;;;;;28.50;73.80;;;;;;5071459;28;20385;-49
2023/06/11 10:06:53;;;;;;;;;;;28.60;74.10;;;;;;5071058;28;20075;-49
2023/06/11 10:09:19;;;;;;;;;;;28.70;74.20;;;;;;5071399;28;19915;-49
2023/06/11 10:11:45;;;;;;;;;;;28.90;73.90;;;;;;5071262;28;20330;-49
2023/06/11 10:14:12;;;;;;;;;;;28.90;74.10;;;;;;5071678;28;20391;-51
2023/06/11 10:16:37;;;;;;;;;;;28.90;73.10;;;;;;5071232;28;19909;-50
2023/06/11 10:19:03;;;;;;;;;;;28.90;69.80;;;;;;5071177;28;20429;-50
2023/06/11 10:21:33;;;;;;;;;;;28.90;71.00;;;;;;5070788;28;19909;-50
2023/06/11 10:23:59;;;;;;;;;;;28.80;70.60;;;;;;5071209;28;20332;-50
2023/06/11 10:26:32;;;;;;;;;;;28.90;69.90;;;;;;5071132;28;19966;-51
2023/06/11 10:28:57;;;;;;;;;;;28.90;67.60;;;;;;5071369;28;19916;-48
2023/06/11 10:31:26;;;;;;;;;;;28.90;69.70;;;;;;5070911;28;19908;-50
2023/06/11 10:33:59;;;;;;;;;;;29.00;68.70;;;;;;5070954;28;19924;-50
2023/06/11 10:36:25;;;;;;;;;;;29.10;69.70;;;;;;5071102;28;19908;-53
2023/06/11 10:38:51;;;;;;;;;;;29.30;69.20;;;;;;5053110;28;19923;-50
2023/06/11 10:41:26;;;;;;;;;;;29.30;66.80;;;;;;5071223;28;19908;-48
2023/06/11 10:43:52;;;;;;;;;;;29.40;66.40;;;;;;5071145;28;19909;-47
2023/06/11 10:46:18;;;;;;;;;;;29.30;64.90;;;;;;5070845;28;19912;-50
2023/06/11 10:48:54;;;;;;;;;;;29.10;65.90;;;;;;5071181;28;20278;-48
2023/06/11 10:51:21;;;;;;;;;;;29.10;66.30;;;;;;5070637;28;19915;-50
2023/06/11 10:53:57;;;;;;;;;;;29.30;65.00;;;;;;5071186;28;19908;-48
2023/06/11 10:56:23;;;;;;;;;;;29.30;65.10;;;;;;5070765;28;19916;-51
2023/06/11 10:58:49;;;;;;;;;;;29.30;66.10;;;;;;5070746;28;20019;-47
2023/06/11 11:01:18;;;;;;;;;;;29.40;66.10;;;;;;5070717;28;19908;-49
2023/06/11 11:03:43;;;;;;;;;;;29.40;64.90;;;;;;5071078;28;19970;-48
2023/06/11 11:06:09;;;;;;;;;;;29.50;65.40;;;;;;5070568;28;19912;-50
2023/06/11 11:08:35;;;;;;;;;;;29.50;64.10;;;;;;5071233;28;19939;-49
2023/06/11 11:11:00;;;;;;;;;;;29.50;64.50;;;;;;5070535;28;19909;-48
2023/06/11 11:13:26;;;;;;;;;;;29.50;65.00;;;;;;5070645;28;19959;-48
2023/06/11 11:15:52;;;;;;;;;;;29.50;63.70;;;;;;5070560;28;19909;-47
2023/06/11 11:18:18;;;;;;;;;;;29.50;64.20;;;;;;5070637;28;20007;-51
2023/06/11 11:20:46;;;;;;;;;;;29.50;62.20;;;;;;5070506;28;19912;-47
2023/06/11 11:23:12;;;;;;;;;;;29.50;63.20;;;;;;5070657;28;19912;-47
2023/06/11 11:25:38;;;;;;;;;;;29.70;63.00;;;;;;5070761;28;19919;-49
2023/06/11 11:28:05;;;;;;;;;;;29.80;64.00;;;;;;5070364;28;20401;-47
2023/06/11 11:30:31;;;;;;;;;;;29.80;62.80;;;;;;5070377;28;20015;-48
2023/06/11 11:32:57;;;;;;;;;;;29.80;64.00;;;;;;5070781;28;19959;-49
2023/06/11 11:35:22;;;;;;;;;;;30.00;64.00;;;;;;5074433;28;19908;-48
2023/06/11 11:37:50;;;;;;;;;;;29.90;63.00;;;;;;5073931;28;19916;-50
2023/06/11 11:40:20;;;;;;;;;;;30.00;63.80;;;;;;5073928;28;19915;-48
2023/06/11 11:42:45;;;;;;;;;;;29.80;62.40;;;;;;5073909;28;19908;-48
2023/06/11 11:45:11;;;;;;;;;;;29.80;64.40;;;;;;5074101;28;19908;-48
2023/06/11 11:47:37;;;;;;;;;;;29.90;64.80;;;;;;5074063;28;19914;-49
2023/06/11 11:50:03;;;;;;;;;;;30.20;62.60;;;;;;5073848;28;19908;-48
2023/06/11 11:52:28;;;;;;;;;;;30.10;63.10;;;;;;5073768;28;19912;-50
2023/06/11 11:54:55;;;;;;;;;;;30.10;62.30;;;;;;5073876;28;20323;-51
2023/06/11 11:57:21;;;;;;;;;;;30.10;61.70;;;;;;5073615;28;20272;-49
2023/06/11 11:59:51;;;;;;;;;;;30.00;62.10;;;;;;5074123;28;19908;-49
2023/06/11 12:02:16;;;;;;;;;;;29.90;61.80;;;;;;5073624;28;19912;-48
2023/06/11 12:04:45;;;;;;;;;;;30.00;62.10;;;;;;5073803;28;19908;-50
2023/06/11 12:07:12;;;;;;;;;;;30.10;61.50;;;;;;5073640;28;19908;-49
2023/06/11 12:09:38;;;;;;;;;;;30.00;62.10;;;;;;5056149;28;19915;-51
2023/06/11 12:12:04;;;;;;;;;;;30.10;62.00;;;;;;5073645;28;19913;-49
2023/06/11 12:14:30;;;;;;;;;;;30.10;62.50;;;;;;5072678;28;19908;-49
2023/06/11 12:16:55;;;;;;;;;;;30.20;62.00;;;;;;5073669;28;20288;-49
2023/06/11 12:19:21;;;;;;;;;;;30.20;62.60;;;;;;5073733;28;19915;-49
2023/06/11 12:21:47;;;;;;;;;;;30.00;62.50;;;;;;5073373;28;19909;-49
2023/06/11 12:24:15;;;;;;;;;;;29.80;63.50;;;;;;5073428;28;20037;-49
2023/06/11 12:26:50;;;;;;;;;;;29.70;63.60;;;;;;5073530;28;19971;-49
2023/06/11 12:29:16;;;;;;;;;;;29.60;62.20;;;;;;5072222;28;20371;-51
2023/06/11 12:31:42;;;;;;;;;;;29.70;63.40;;;;;;5073161;28;19930;-49
2023/06/11 12:34:14;;;;;;;;;;;29.50;62.50;;;;;;5073120;28;19908;-49
2023/06/11 12:36:40;;;;;;;;;;;29.30;63.10;;;;;;5072901;28;20292;-48
2023/06/11 12:39:06;;;;;;;;;;;29.10;63.10;;;;;;5073271;28;19916;-48
2023/06/11 12:41:31;;;;;;;;;;;29.00;63.10;;;;;;5072831;28;19977;-49
2023/06/11 12:43:57;;;;;;;;;;;29.10;63.50;;;;;;5073158;28;19963;-49
2023/06/11 12:46:23;;;;;;;;;;;29.30;62.60;;;;;;5071487;28;19909;-50
2023/06/11 12:48:48;;;;;;;;;;;29.50;63.20;;;;;;5072845;28;19912;-49
2023/06/11 12:51:14;;;;;;;;;;;29.70;62.70;;;;;;5073079;28;20094;-48
2023/06/11 12:53:40;;;;;;;;;;;29.80;62.40;;;;;;5072730;28;20372;-49
2023/06/11 12:56:06;;;;;;;;;;;29.90;60.70;;;;;;5072591;28;19920;-49
2023/06/11 12:58:31;;;;;;;;;;;30.00;60.20;;;;;;5072647;28;20011;-49
2023/06/11 13:00:57;;;;;;;;;;;30.00;59.60;;;;;;5072538;28;20449;-52
2023/06/11 13:03:23;;;;;;;;;;;30.00;59.80;;;;;;5072405;28;19908;-49
2023/06/11 13:05:48;;;;;;;;;;;30.10;60.00;;;;;;5072828;28;19919;-51
2023/06/11 13:08:14;;;;;;;;;;;30.30;60.30;;;;;;5072458;28;19965;-50
2023/06/11 13:10:40;;;;;;;;;;;30.30;59.80;;;;;;5070924;28;20338;-50
2023/06/11 13:13:06;;;;;;;;;;;30.40;59.30;;;;;;5072441;28;20285;-46
2023/06/11 13:15:32;;;;;;;;;;;30.40;58.30;;;;;;5072331;28;19919;-48
2023/06/11 13:17:57;;;;;;;;;;;30.20;58.30;;;;;;5071910;28;19920;-49
2023/06/11 13:20:23;;;;;;;;;;;30.00;58.60;;;;;;5072090;28;19953;-51
2023/06/11 13:22:48;;;;;;;;;;;30.00;59.90;;;;;;5072046;28;19920;-48
2023/06/11 13:25:17;;;;;;;;;;;30.20;58.80;;;;;;5072243;28;19934;-50
2023/06/11 13:27:43;;;;;;;;;;;30.40;58.50;;;;;;5071874;28;19919;-48
2023/06/11 13:30:09;;;;;;;;;;;30.70;58.20;;;;;;5071992;28;19912;-49
2023/06/11 13:32:36;;;;;;;;;;;30.80;57.30;;;;;;5072103;28;19915;-47
2023/06/11 13:35:02;;;;;;;;;;;30.80;57.90;;;;;;5071857;28;20376;-50
2023/06/11 13:37:28;;;;;;;;;;;30.80;58.10;;;;;;5071520;28;19935;-50
2023/06/11 13:39:54;;;;;;;;;;;30.90;57.70;;;;;;5071912;28;19915;-49
2023/06/11 13:42:20;;;;;;;;;;;30.90;57.00;;;;;;5071490;28;20368;-47
2023/06/11 13:44:45;;;;;;;;;;;30.80;56.20;;;;;;5071800;28;20000;-49
2023/06/11 13:47:11;;;;;;;;;;;30.80;56.30;;;;;;5071446;28;19908;-50
2023/06/11 13:49:37;;;;;;;;;;;30.60;56.30;;;;;;5071647;28;19908;-47
2023/06/11 13:52:03;;;;;;;;;;;30.50;56.60;;;;;;5071377;28;19920;-48
2023/06/11 13:54:31;;;;;;;;;;;30.20;57.30;;;;;;5071754;28;19916;-48
2023/06/11 13:56:57;;;;;;;;;;;30.20;58.40;;;;;;5053095;28;19909;-48
2023/06/11 13:59:23;;;;;;;;;;;30.40;57.80;;;;;;5071901;28;19954;-47
2023/06/11 14:01:51;;;;;;;;;;;30.50;57.20;;;;;;5071146;28;19919;-47
2023/06/11 14:04:17;;;;;;;;;;;30.50;57.20;;;;;;5071437;28;20387;-49
2023/06/11 14:06:43;;;;;;;;;;;30.50;57.50;;;;;;5071280;28;19908;-48
2023/06/11 14:09:08;;;;;;;;;;;30.60;57.30;;;;;;5071702;28;19999;-47
2023/06/11 14:11:34;;;;;;;;;;;30.60;57.40;;;;;;5071387;28;20094;-49
2023/06/11 14:14:00;;;;;;;;;;;30.70;57.30;;;;;;5071435;28;19908;-48